Time;durP1;ratioP1;P1;durP2;ratioP2;P2;SDS_P1;SDS_P2;PMS_P1;PMS_P2;Temp;Humidity;BMP_temperature;BMP_pressure;BME280_temperature;BME280_humidity;BME280_pressure;Samples;Min_cycle;Max_cycle;Signal;HPM_P1;HPM_P2
2023/03/21 00:00:32;;;;;;;8.70;4.60;;;;;;;9.62;100.00;100582.50;20993143;28;20086;-70
2023/03/21 00:10:33;;;;;;;8.05;4.30;;;;;;;9.56;100.00;100572.09;20990300;28;20220;-70
2023/03/21 00:20:50;;;;;;;8.10;4.38;;;;;;;9.61;100.00;100567.69;20988449;28;20102;-70
2023/03/21 00:30:52;;;;;;;11.18;4.40;;;;;;;9.54;100.00;100567.78;20985474;28;20037;-70
2023/03/21 00:40:53;;;;;;;8.32;4.15;;;;;;;9.36;100.00;100561.81;20988525;28;20105;-71
2023/03/21 00:50:55;;;;;;;9.07;3.75;;;;;;;9.23;100.00;100554.97;21001981;28;20048;-71
2023/03/21 01:00:57;;;;;;;8.77;4.05;;;;;;;9.00;100.00;100542.91;21005527;28;20044;-71
2023/03/21 01:10:58;;;;;;;9.48;3.60;;;;;;;8.76;100.00;100535.25;21000699;28;20802;-71
2023/03/21 01:21:00;;;;;;;6.60;3.42;;;;;;;8.41;100.00;100533.72;21001261;28;20119;-69
2023/03/21 01:31:01;;;;;;;8.82;3.58;;;;;;;8.16;100.00;100529.44;21000381;28;20051;-69
2023/03/21 01:41:03;;;;;;;11.60;3.83;;;;;;;7.96;100.00;100533.00;21000577;28;20048;-70
2023/03/21 01:51:14;;;;;;;6.68;3.47;;;;;;;7.75;100.00;100513.94;20996309;28;20056;-70
2023/03/21 02:01:17;;;;;;;8.73;4.60;;;;;;;7.63;100.00;100505.28;20995924;28;20098;-69
2023/03/21 02:11:18;;;;;;;10.18;4.07;;;;;;;7.40;100.00;100507.91;20998259;28;20053;-69
2023/03/21 02:21:20;;;;;;;8.38;4.07;;;;;;;7.16;100.00;100500.13;20998949;28;20898;-70
2023/03/21 02:31:21;;;;;;;9.90;4.10;;;;;;;6.91;100.00;100497.50;20994845;28;20048;-70
2023/03/21 02:41:22;;;;;;;8.95;4.05;;;;;;;6.65;100.00;100492.25;20994360;28;20060;-69
2023/03/21 02:51:27;;;;;;;10.07;4.38;;;;;;;6.54;100.00;100485.31;20992707;28;20485;-69
2023/03/21 03:01:28;;;;;;;8.73;3.83;;;;;;;6.38;100.00;100472.28;20994416;28;20094;-69
2023/03/21 03:11:29;;;;;;;9.40;4.90;;;;;;;6.39;100.00;100481.81;20994044;28;20733;-70
2023/03/21 03:21:31;;;;;;;8.75;4.55;;;;;;;6.42;100.00;100476.63;20989958;28;20055;-69
2023/03/21 03:31:32;;;;;;;10.95;5.18;;;;;;;6.54;100.00;100467.09;20991627;28;20106;-69
2023/03/21 03:41:35;;;;;;;13.10;7.20;;;;;;;6.63;100.00;100464.53;20991697;28;20485;-69
2023/03/21 03:51:56;;;;;;;10.45;5.38;;;;;;;6.73;100.00;100463.66;20991074;28;20518;-69
2023/03/21 04:01:58;;;;;;;12.20;6.93;;;;;;;6.97;100.00;100456.72;20990797;28;20078;-69
2023/03/21 04:11:59;;;;;;;11.05;5.57;;;;;;;6.97;100.00;100460.19;20989994;28;20481;-69
2023/03/21 04:22:00;;;;;;;14.68;6.95;;;;;;;7.05;100.00;100462.81;20994321;28;20048;-70
2023/03/21 04:32:02;;;;;;;16.00;8.45;;;;;;;7.10;100.00;100461.06;21005242;28;20091;-69
2023/03/21 04:42:03;;;;;;;14.35;7.70;;;;;;;7.04;100.00;100467.16;21008580;28;20044;-68
2023/03/21 04:52:04;;;;;;;11.80;6.28;;;;;;;6.91;100.00;100460.19;20999215;28;20049;-69
2023/03/21 05:02:06;;;;;;;14.30;8.52;;;;;;;6.72;100.00;100454.13;21003471;28;20075;-69
2023/03/21 05:12:07;;;;;;;12.48;7.60;;;;;;;6.69;100.00;100444.56;21003960;28;20067;-69
2023/03/21 05:22:08;;;;;;;16.02;8.05;;;;;;;6.75;100.00;100451.50;21002807;28;20048;-71
2023/03/21 05:32:09;;;;;;;21.27;10.88;;;;;;;6.74;100.00;100438.50;21002060;28;20105;-70
2023/03/21 05:42:11;;;;;;;15.95;9.73;;;;;;;6.66;100.00;100443.72;20996928;28;20052;-70
2023/03/21 05:52:12;;;;;;;14.65;9.57;;;;;;;6.55;100.00;100455.81;20996874;28;20114;-72
2023/03/21 06:02:13;;;;;;;18.58;10.48;;;;;;;6.60;100.00;100460.16;20998456;28;20056;-71
2023/03/21 06:12:15;;;;;;;19.05;11.60;;;;;;;6.75;100.00;100463.66;21001673;28;20048;-70
2023/03/21 06:22:16;;;;;;;25.35;13.93;;;;;;;7.03;100.00;100464.53;20993922;28;20052;-69
2023/03/21 06:32:17;;;;;;;24.83;12.45;;;;;;;7.16;100.00;100469.72;20995545;28;20040;-70
2023/03/21 06:42:18;;;;;;;20.88;12.68;;;;;;;7.33;100.00;100469.72;20996767;28;20052;-71
2023/03/21 06:52:20;;;;;;;24.23;13.15;;;;;;;7.32;100.00;100465.38;20997670;28;20142;-72
2023/03/21 07:02:21;;;;;;;18.38;11.95;;;;;;;7.64;100.00;100449.69;20993455;28;20056;-71
2023/03/21 07:12:22;;;;;;;16.02;10.32;;;;;;;8.10;100.00;100453.84;20991289;28;20506;-71
2023/03/21 07:22:24;;;;;;;16.15;9.23;;;;;;;8.57;100.00;100440.53;20993205;28;20068;-71
2023/03/21 07:32:28;;;;;;;15.45;8.80;;;;;;;8.93;100.00;100438.53;20993649;28;20048;-71
2023/03/21 07:42:30;;;;;;;14.98;9.32;;;;;;;9.39;100.00;100435.47;20979563;28;20508;-71
2023/03/21 07:52:32;;;;;;;13.55;8.23;;;;;;;9.88;100.00;100448.03;20976734;28;20041;-71
2023/03/21 08:02:33;;;;;;;13.68;7.47;;;;;;;10.22;100.00;100443.22;20989289;28;20044;-71
2023/03/21 08:12:34;;;;;;;11.65;6.10;;;;;;;10.49;100.00;100448.13;20996047;28;20098;-71
2023/03/21 08:22:36;;;;;;;10.63;6.18;;;;;;;10.87;100.00;100437.91;21000875;28;20117;-70
2023/03/21 08:32:37;;;;;;;10.82;6.00;;;;;;;10.80;100.00;100447.63;21006850;28;20044;-70
2023/03/21 08:42:39;;;;;;;12.20;6.15;;;;;;;11.30;100.00;100445.91;21000810;28;20052;-70
2023/03/21 08:52:40;;;;;;;10.75;5.38;;;;;;;11.62;100.00;100449.69;21003282;28;20043;-71
2023/03/21 09:02:41;;;;;;;10.30;5.00;;;;;;;11.36;100.00;100447.56;21003715;28;20048;-71
2023/03/21 09:12:43;;;;;;;11.43;6.07;;;;;;;11.95;100.00;100435.94;21004946;28;20135;-71
2023/03/21 09:22:44;;;;;;;8.80;4.13;;;;;;;12.13;100.00;100431.22;20998335;28;20084;-71
2023/03/21 09:32:47;;;;;;;8.70;3.70;;;;;;;12.23;100.00;100438.84;21000492;28;20114;-69
2023/03/21 09:42:48;;;;;;;7.78;3.97;;;;;;;12.39;100.00;100434.09;20998200;28;20117;-69
2023/03/21 09:52:50;;;;;;;6.32;3.55;;;;;;;12.97;100.00;100429.22;20996758;28;20538;-69
2023/03/21 10:02:52;;;;;;;9.50;4.68;;;;;;;13.19;100.00;100425.16;20997683;28;20144;-70
2023/03/21 10:12:57;;;;;;;10.10;3.78;;;;;;;13.59;100.00;100426.75;20992592;28;20117;-69
2023/03/21 10:22:58;;;;;;;7.85;3.78;;;;;;;13.75;100.00;100407.00;20991098;28;20118;-69
2023/03/21 10:33:01;;;;;;;7.53;3.38;;;;;;;13.69;100.00;100395.78;20995945;28;20052;-69
2023/03/21 10:43:02;;;;;;;5.95;3.33;;;;;;;13.70;100.00;100386.97;20990481;28;20450;-69
2023/03/21 10:53:03;;;;;;;8.68;4.78;;;;;;;14.16;100.00;100382.97;20992306;28;20422;-69
2023/03/21 11:03:05;;;;;;;8.70;3.55;;;;;;;14.48;100.00;100382.88;20993903;28;20492;-68
2023/03/21 11:13:07;;;;;;;6.10;3.47;;;;;;;14.49;94.79;100363.50;21012705;28;20054;-69
2023/03/21 11:23:08;;;;;;;8.10;4.18;;;;;;;14.29;97.71;100361.50;21014573;28;20085;-70
2023/03/21 11:33:09;;;;;;;7.00;3.70;;;;;;;14.57;94.45;100358.88;21012677;28;20641;-69
2023/03/21 11:43:11;;;;;;;6.53;3.63;;;;;;;14.90;83.18;100342.84;21007631;28;20068;-69
2023/03/21 11:53:13;;;;;;;10.35;4.15;;;;;;;15.06;82.20;100330.84;21006492;28;20056;-70
2023/03/21 12:03:14;;;;;;;7.75;3.42;;;;;;;15.21;79.30;100313.59;21011868;28;20056;-69
2023/03/21 12:13:15;;;;;;;6.25;3.58;;;;;;;15.68;75.90;100300.44;20996991;28;20060;-68
2023/03/21 12:23:17;;;;;;;4.93;2.38;;;;;;;15.68;69.22;100273.19;21004824;28;20516;-69
2023/03/21 12:33:18;;;;;;;5.35;1.95;;;;;;;15.68;66.97;100262.66;21006450;28;20139;-69
2023/03/21 12:43:19;;;;;;;7.10;2.10;;;;;;;16.02;65.62;100262.16;21018619;28;20064;-69
2023/03/21 12:53:20;;;;;;;4.47;2.10;;;;;;;16.22;64.72;100235.78;21025818;28;20052;-69
2023/03/21 13:03:23;;;;;;;5.07;2.47;;;;;;;16.50;63.01;100219.63;21023322;28;20044;-69
2023/03/21 13:13:39;;;;;;;5.35;2.53;;;;;;;16.59;64.38;100231.59;21015100;28;20040;-70
2023/03/21 13:23:40;;;;;;;5.38;2.75;;;;;;;16.14;61.12;100214.09;21021386;28;20100;-69
2023/03/21 13:33:43;;;;;;;6.60;3.30;;;;;;;16.43;59.06;100215.50;21022638;28;20101;-69
2023/03/21 13:43:44;;;;;;;6.28;2.78;;;;;;;16.91;59.92;100202.00;21023525;28;20040;-69
2023/03/21 13:53:46;;;;;;;5.60;3.15;;;;;;;16.34;60.95;100195.66;21009302;28;20067;-70
2023/03/21 14:03:47;;;;;;;7.35;2.55;;;;;;;16.22;60.12;100187.38;21015231;28;20102;-69
2023/03/21 14:13:48;;;;;;;4.93;1.80;;;;;;;15.96;52.92;100173.50;21014958;28;20086;-69
2023/03/21 14:23:51;;;;;;;5.03;2.10;;;;;;;16.11;60.10;100151.72;21018234;28;20082;-71
2023/03/21 14:33:53;;;;;;;3.85;1.98;;;;;;;16.12;58.85;100153.44;21003901;28;20740;-71
2023/03/21 14:43:54;;;;;;;6.28;2.40;;;;;;;15.97;59.77;100159.38;21011783;28;20040;-71
2023/03/21 14:53:55;;;;;;;6.57;2.13;;;;;;;15.55;62.72;100167.22;21007619;28;20090;-69
2023/03/21 15:03:57;;;;;;;7.47;2.90;;;;;;;15.55;72.58;100141.69;21015161;28;20760;-69
2023/03/21 15:14:00;;;;;;;7.03;2.30;;;;;;;15.50;80.04;100143.66;21016207;28;20741;-70
2023/03/21 15:24:02;;;;;;;5.15;2.53;;;;;;;15.19;80.17;100130.81;21005574;28;20481;-71
2023/03/21 15:34:03;;;;;;;5.65;3.15;;;;;;;15.07;73.15;100128.66;21000550;23;20627;-71
2023/03/21 15:44:04;;;;;;;5.18;2.83;;;;;;;15.00;80.19;100106.94;20873263;28;20086;-70
2023/03/21 15:54:05;;;;;;;10.63;8.40;;;;;;;14.71;84.01;100088.72;20876907;28;20049;-68
2023/03/21 16:04:07;;;;;;;6.57;2.85;;;;;;;14.60;77.38;100113.69;20873057;28;20176;-68
2023/03/21 16:14:08;;;;;;;8.20;3.42;;;;;;;14.37;90.15;100097.84;20842117;28;20099;-69
2023/03/21 16:24:11;;;;;;;8.98;3.88;;;;;;;14.20;93.12;100090.56;20861509;28;20469;-68
2023/03/21 16:34:12;;;;;;;6.68;3.30;;;;;;;14.06;92.93;100091.03;20861116;28;20489;-69
2023/03/21 16:44:13;;;;;;;6.82;2.80;;;;;;;13.92;96.10;100103.81;20867140;28;20115;-68
2023/03/21 16:54:15;;;;;;;10.95;4.13;;;;;;;13.80;86.75;100115.63;20853609;28;20134;-69
2023/03/21 17:04:16;;;;;;;6.85;2.75;;;;;;;13.64;87.49;100114.41;20857164;28;20061;-69
2023/03/21 17:14:20;;;;;;;8.40;4.00;;;;;;;13.53;89.54;100124.41;20855032;28;20488;-69
2023/03/21 17:24:22;;;;;;;11.10;5.60;;;;;;;13.40;88.91;100116.06;20859488;28;20052;-69
2023/03/21 17:34:23;;;;;;;7.68;3.40;;;;;;;13.26;89.61;100127.00;20853497;28;20493;-68
2023/03/21 17:44:25;;;;;;;6.15;2.80;;;;;;;13.09;93.46;100124.00;20837640;28;20053;-68
2023/03/21 17:54:26;;;;;;;5.75;3.08;;;;;;;12.92;94.36;100124.50;20848184;28;20091;-68
2023/03/21 18:04:27;;;;;;;5.40;2.40;;;;;;;12.77;97.53;100119.72;20851646;28;20044;-71
2023/03/21 18:14:29;;;;;;;5.03;2.20;;;;;;;12.69;98.12;100127.78;20858432;28;20293;-71
2023/03/21 18:24:30;;;;;;;6.55;2.75;;;;;;;12.50;100.00;100130.13;20850236;28;20069;-70
2023/03/21 18:34:32;;;;;;;10.07;4.82;;;;;;;12.44;100.00;100139.91;20846781;28;20099;-70
2023/03/21 18:44:37;;;;;;;13.10;6.55;;;;;;;12.40;100.00;100133.00;20847735;28;20115;-70
2023/03/21 18:54:39;;;;;;;9.38;5.10;;;;;;;12.13;100.00;100155.63;20855079;28;20107;-70
2023/03/21 19:04:41;;;;;;;10.57;4.15;;;;;;;11.89;100.00;100139.63;20847217;28;20037;-70
2023/03/21 19:14:42;;;;;;;10.63;6.38;;;;;;;11.73;100.00;100139.06;20842525;28;20052;-70
2023/03/21 19:24:43;;;;;;;13.85;8.23;;;;;;;11.71;100.00;100155.75;20845191;28;20045;-71
2023/03/21 19:34:45;;;;;;;13.10;7.28;;;;;;;11.62;100.00;100146.34;20846023;28;20460;-70
2023/03/21 19:44:47;;;;;;;11.45;6.20;;;;;;;11.40;100.00;100161.75;20855628;28;20084;-70
2023/03/21 19:54:48;;;;;;;10.85;6.13;;;;;;;11.26;100.00;100162.06;20844945;28;20497;-69
2023/03/21 20:04:50;;;;;;;11.55;6.68;;;;;;;11.08;100.00;100165.06;20840821;28;20049;-69
2023/03/21 20:14:51;;;;;;;13.93;7.50;;;;;;;10.73;100.00;100163.16;20842559;28;20117;-69
2023/03/21 20:25:10;;;;;;;11.98;6.95;;;;;;;10.51;100.00;100160.97;20846957;28;20561;-70
2023/03/21 20:35:11;;;;;;;12.85;7.60;;;;;;;10.23;100.00;100163.22;20845331;28;20092;-69
2023/03/21 20:45:27;;;;;;;13.07;7.45;;;;;;;9.86;100.00;100165.59;20844707;28;20053;-70
2023/03/21 21:05:37;;;;;;;11.80;4.68;;;;;;;9.80;100.00;100186.63;20555023;28;20129;-80
2023/03/21 21:15:38;;;;;;;13.07;8.07;;;;;;;9.71;100.00;100179.78;20610081;28;20057;-76
2023/03/21 21:25:40;;;;;;;13.27;8.38;;;;;;;9.54;100.00;100181.81;20591216;28;20046;-79
2023/03/21 21:35:46;;;;;;;13.05;7.53;;;;;;;9.35;100.00;100176.00;20571304;28;20553;-76
2023/03/21 21:45:47;;;;;;;14.07;8.30;;;;;;;9.20;100.00;100176.22;20577628;28;20046;-78
2023/03/21 21:55:49;;;;;;;16.95;9.77;;;;;;;9.15;100.00;100162.31;20570508;28;20492;-76
2023/03/21 22:05:51;;;;;;;16.50;8.75;;;;;;;8.89;100.00;100166.16;20573326;28;20073;-79
2023/03/21 22:15:52;;;;;;;13.07;8.02;;;;;;;8.72;100.00;100165.50;20575952;28;20562;-78
2023/03/21 22:25:54;;;;;;;16.55;10.65;;;;;;;8.67;100.00;100172.50;20574540;28;20105;-75
2023/03/21 22:35:55;;;;;;;11.30;7.07;;;;;;;8.97;100.00;100174.75;20562816;28;20065;-76
2023/03/21 22:45:56;;;;;;;12.65;7.30;;;;;;;9.03;100.00;100162.50;20565897;28;20043;-78
2023/03/21 22:55:58;;;;;;;10.63;4.97;;;;;;;8.99;100.00;100151.22;20557654;28;20046;-76
2023/03/21 23:06:00;;;;;;;10.18;6.57;;;;;;;8.92;100.00;100158.28;20566074;28;20110;-77
2023/03/21 23:16:01;;;;;;;11.85;6.15;;;;;;;8.82;100.00;100163.66;20570618;28;20053;-77
2023/03/21 23:26:02;;;;;;;11.63;6.07;;;;;;;8.74;100.00;100156.75;20573774;28;20054;-76
2023/03/21 23:36:04;;;;;;;9.40;5.40;;;;;;;8.73;100.00;100155.03;20573794;28;20046;-75
2023/03/21 23:46:05;;;;;;;11.23;5.88;;;;;;;8.75;100.00;100147.19;20589174;28;20515;-76
2023/03/21 23:56:06;;;;;;;14.45;8.52;;;;;;;8.80;100.00;100141.91;20569763;28;20047;-76
